Time;durP1;ratioP1;P1;durP2;ratioP2;P2;SDS_P1;SDS_P2;PMS_P1;PMS_P2;Temp;Humidity;BMP_temperature;BMP_pressure;BME280_temperature;BME280_humidity;BME280_pressure;Samples;Min_cycle;Max_cycle;Signal;HPM_P1;HPM_P2
2022/08/24 00:00:41;;;;;;;5.97;5.37;;;18.90;1.00;;;;;;6278894;28;20706;-56
2022/08/24 00:03:49;;;;;;;5.33;4.80;;;18.90;1.00;;;;;;6285224;28;20241;-55
2022/08/24 00:06:59;;;;;;;5.40;4.83;;;18.80;1.00;;;;;;6283179;28;20229;-55
2022/08/24 00:10:04;;;;;;;5.40;5.00;;;18.80;1.00;;;;;;6263913;28;20489;-55
2022/08/24 00:13:08;;;;;;;8.50;5.80;;;18.70;1.00;;;;;;6280260;28;20240;-56
2022/08/24 00:16:12;;;;;;;5.67;5.17;;;18.80;1.00;;;;;;6284241;28;20427;-56
2022/08/24 00:19:17;;;;;;;6.37;5.83;;;18.70;1.00;;;;;;6273325;28;20741;-56
2022/08/24 00:22:20;;;;;;;6.03;5.37;;;18.80;1.00;;;;;;6271966;28;20329;-56
2022/08/24 00:25:23;;;;;;;4.87;4.67;;;18.70;1.00;;;;;;6271665;28;20378;-54
2022/08/24 00:28:27;;;;;;;6.00;5.47;;;18.70;1.00;;;;;;6279873;28;20416;-53
2022/08/24 00:31:30;;;;;;;5.77;5.37;;;18.70;1.00;;;;;;6283852;28;20372;-54
2022/08/24 00:34:35;;;;;;;6.17;5.63;;;18.60;1.00;;;;;;6281700;28;20320;-55
2022/08/24 00:37:39;;;;;;;6.10;5.70;;;18.60;1.00;;;;;;6274967;28;20606;-55
2022/08/24 00:40:45;;;;;;;6.47;5.87;;;18.60;1.00;;;;;;6284855;28;20237;-54
2022/08/24 00:44:04;;;;;;;6.40;5.80;;;18.60;1.00;;;;;;6284230;28;20264;-54
2022/08/24 00:47:19;;;;;;;6.57;6.07;;;18.60;1.00;;;;;;6277321;28;20222;-55
2022/08/24 00:50:29;;;;;;;5.53;5.23;;;18.60;1.00;;;;;;6267876;28;20856;-55
2022/08/24 00:53:35;;;;;;;5.93;5.43;;;18.60;1.00;;;;;;6271411;28;20625;-56
2022/08/24 00:56:42;;;;;;;7.47;5.03;;;18.50;1.00;;;;;;6267866;28;20233;-56
2022/08/24 00:59:49;;;;;;;5.70;5.30;;;18.50;1.00;;;;;;6281330;28;20693;-54
2022/08/24 01:02:57;;;;;;;5.73;5.13;;;18.50;1.00;;;;;;6280805;28;20267;-56
2022/08/24 01:06:05;;;;;;;7.80;6.37;;;18.40;1.00;;;;;;6246276;28;20819;-55
2022/08/24 01:09:15;;;;;;;6.20;5.60;;;18.40;1.00;;;;;;6278101;28;20233;-55
2022/08/24 01:12:19;;;;;;;5.40;5.10;;;18.40;1.00;;;;;;6276290;28;20524;-57
2022/08/24 01:15:22;;;;;;;6.07;5.60;;;18.30;1.00;;;;;;6278587;28;20245;-56
2022/08/24 01:22:03;;;;;;;5.20;5.00;;;18.30;1.00;;;;;;6254611;28;21012;-54
2022/08/24 01:25:08;;;;;;;6.07;5.50;;;18.20;1.00;;;;;;6274632;28;20442;-55
2022/08/24 01:28:16;;;;;;;6.77;5.73;;;18.30;1.00;;;;;;6279264;28;20267;-52
2022/08/24 01:31:27;;;;;;;7.33;6.43;;;18.20;1.00;;;;;;6275826;28;20488;-56
2022/08/24 01:34:30;;;;;;;5.03;4.83;;;18.40;1.00;;;;;;6271577;28;20240;-55
2022/08/24 01:37:34;;;;;;;6.80;6.10;;;18.30;1.00;;;;;;6270321;28;20300;-55
2022/08/24 01:40:45;;;;;;;7.53;6.10;;;18.30;1.00;;;;;;6271556;28;20323;-56
2022/08/24 01:43:48;;;;;;;6.93;6.33;;;18.30;1.00;;;;;;6273101;28;20326;-55
2022/08/24 01:46:53;;;;;;;6.83;6.23;;;18.30;1.00;;;;;;6272702;28;20290;-57
2022/08/24 01:49:56;;;;;;;6.63;6.13;;;18.30;1.00;;;;;;6241953;28;20324;-54
2022/08/24 01:53:02;;;;;;;7.30;6.67;;;18.30;1.00;;;;;;6274485;28;20310;-53
2022/08/24 01:56:20;;;;;;;7.97;7.27;;;18.30;1.00;;;;;;6278791;28;20233;-56
2022/08/24 01:59:24;;;;;;;7.63;7.13;;;18.30;1.00;;;;;;6281570;28;20315;-56
2022/08/24 02:02:31;;;;;;;14.57;9.13;;;18.30;1.00;;;;;;6280796;28;20522;-56
2022/08/24 02:05:35;;;;;;;9.53;8.73;;;18.40;1.00;;;;;;6274073;28;20244;-55
2022/08/24 02:08:38;;;;;;;12.83;10.93;;;18.50;1.00;;;;;;6270991;28;20352;-56
2022/08/24 02:11:43;;;;;;;20.27;12.33;;;18.50;1.00;;;;;;6272772;28;20671;-56
2022/08/24 02:14:47;;;;;;;21.30;13.47;;;18.60;1.00;;;;;;6278079;28;20458;-54
2022/08/24 02:17:50;;;;;;;18.90;13.47;;;18.60;1.00;;;;;;6281559;28;20656;-54
2022/08/24 02:20:53;;;;;;;20.67;13.60;;;18.60;1.00;;;;;;6281583;28;20324;-60
2022/08/24 02:23:55;;;;;;;17.93;12.60;;;18.50;1.00;;;;;;6271008;28;20237;-57
2022/08/24 02:27:01;;;;;;;23.03;14.00;;;18.60;1.00;;;;;;6280329;28;20260;-55
2022/08/24 02:30:05;;;;;;;19.40;14.10;;;18.60;1.00;;;;;;6239797;28;1102602;-55
2022/08/24 02:33:08;;;;;;;24.93;15.07;;;18.50;1.00;;;;;;6271047;28;20729;-55
2022/08/24 02:36:12;;;;;;;23.87;16.00;;;18.60;1.00;;;;;;6271244;28;20730;-56
2022/08/24 02:39:31;;;;;;;18.87;14.17;;;18.50;1.00;;;;;;6271933;28;20249;-54
2022/08/24 02:42:35;;;;;;;17.67;14.00;;;18.60;1.00;;;;;;6278156;28;20236;-56
2022/08/24 02:45:39;;;;;;;24.90;15.63;;;18.50;1.00;;;;;;6269952;28;20307;-56
2022/08/24 02:48:49;;;;;;;17.13;13.97;;;18.50;1.00;;;;;;6280223;28;20610;-54
2022/08/24 02:52:21;;;;;;;16.97;14.27;;;18.50;1.00;;;;;;6281943;28;20242;-55
2022/08/24 02:55:24;;;;;;;20.40;15.53;;;18.40;1.00;;;;;;6276671;28;20607;-55
2022/08/24 02:58:33;;;;;;;20.63;15.87;;;18.40;1.00;;;;;;6280351;28;20303;-56
2022/08/24 03:01:36;;;;;;;18.27;15.33;;;18.40;1.00;;;;;;6283156;28;20325;-55
2022/08/24 03:04:39;;;;;;;20.60;14.27;;;18.40;1.00;;;;;;6272425;28;20303;-55
2022/08/24 03:07:42;;;;;;;14.27;12.77;;;18.40;1.00;;;;;;6276969;28;20234;-57
2022/08/24 03:10:45;;;;;;;18.60;14.17;;;18.40;1.00;;;;;;6276234;28;20306;-56
2022/08/24 03:13:50;;;;;;;15.17;13.67;;;18.40;1.00;;;;;;6279198;28;20290;-54
2022/08/24 03:16:53;;;;;;;14.77;13.27;;;18.30;1.00;;;;;;6281446;28;20238;-55
2022/08/24 03:19:56;;;;;;;15.47;13.80;;;18.30;1.00;;;;;;6284020;28;20388;-55
2022/08/24 03:22:59;;;;;;;14.33;12.80;;;18.20;1.00;;;;;;6266536;28;20241;-55
2022/08/24 03:26:02;;;;;;;17.43;14.20;;;18.20;1.00;;;;;;6286347;28;20366;-58
2022/08/24 03:29:06;;;;;;;15.93;13.83;;;18.20;1.00;;;;;;6269833;28;20309;-52
2022/08/24 03:32:09;;;;;;;14.33;12.83;;;18.10;1.00;;;;;;6263686;28;20251;-55
2022/08/24 03:35:14;;;;;;;15.07;13.57;;;18.10;1.00;;;;;;6281923;28;20604;-55
2022/08/24 03:38:17;;;;;;;15.27;13.80;;;18.10;1.00;;;;;;6284099;28;20328;-55
2022/08/24 03:41:20;;;;;;;13.97;12.53;;;18.10;1.00;;;;;;6284473;28;20241;-57
2022/08/24 03:44:25;;;;;;;14.47;13.07;;;18.00;1.00;;;;;;6285454;28;20344;-54
2022/08/24 03:47:27;;;;;;;15.07;13.57;;;18.00;1.00;;;;;;6281767;28;20577;-56
2022/08/24 03:50:30;;;;;;;16.23;13.57;;;18.00;1.00;;;;;;6282262;28;20314;-55
2022/08/24 03:53:33;;;;;;;15.30;13.77;;;17.90;1.00;;;;;;6285157;28;20702;-56
2022/08/24 03:56:40;;;;;;;14.10;12.70;;;18.00;1.00;;;;;;6278207;28;20240;-53
2022/08/24 03:59:44;;;;;;;14.17;12.77;;;17.90;1.00;;;;;;6284405;28;20541;-55
2022/08/24 04:02:49;;;;;;;14.33;13.10;;;17.90;1.00;;;;;;6280848;28;20710;-55
2022/08/24 04:05:52;;;;;;;13.30;12.20;;;17.90;1.00;;;;;;6279108;28;20237;-53
2022/08/24 04:08:57;;;;;;;12.97;11.83;;;17.90;1.00;;;;;;6271537;28;20243;-54
2022/08/24 04:12:00;;;;;;;13.77;12.47;;;17.90;1.00;;;;;;6272721;28;20237;-57
2022/08/24 04:15:05;;;;;;;14.87;13.50;;;17.90;1.00;;;;;;6283378;28;20598;-55
2022/08/24 04:18:09;;;;;;;13.77;12.37;;;17.90;1.00;;;;;;6281233;28;20304;-51
2022/08/24 04:21:17;;;;;;;14.67;13.10;;;17.90;1.00;;;;;;6279823;28;20677;-54
2022/08/24 04:24:20;;;;;;;14.77;13.33;;;17.80;1.00;;;;;;6280650;28;20484;-53
2022/08/24 04:27:23;;;;;;;15.47;13.83;;;17.90;1.00;;;;;;6283082;28;20296;-54
2022/08/24 04:30:28;;;;;;;13.80;12.40;;;17.90;1.00;;;;;;6282822;28;20867;-54
2022/08/24 04:33:36;;;;;;;14.37;12.93;;;17.90;1.00;;;;;;6276241;28;20394;-54
2022/08/24 04:36:40;;;;;;;13.90;12.70;;;17.90;1.00;;;;;;6288571;28;20264;-55
2022/08/24 04:39:43;;;;;;;15.60;14.17;;;17.90;1.00;;;;;;6278131;28;20302;-56
2022/08/24 04:42:47;;;;;;;14.43;12.97;;;18.00;1.00;;;;;;6280471;28;20603;-54
2022/08/24 04:45:52;;;;;;;14.50;13.20;;;17.90;1.00;;;;;;6283261;28;20334;-55
2022/08/24 04:48:55;;;;;;;16.27;14.60;;;18.00;1.00;;;;;;6278739;28;20252;-56
2022/08/24 04:51:58;;;;;;;14.40;13.00;;;18.00;1.00;;;;;;6283659;28;20332;-54
2022/08/24 04:55:01;;;;;;;14.60;13.30;;;18.10;1.00;;;;;;6282548;28;20252;-55
2022/08/24 04:58:04;;;;;;;13.73;12.60;;;18.10;1.00;;;;;;6281122;28;20302;-55
2022/08/24 05:01:09;;;;;;;14.60;13.20;;;18.20;1.00;;;;;;6275401;28;20242;-58
2022/08/24 05:04:13;;;;;;;15.67;13.83;;;18.20;1.00;;;;;;6282130;28;20828;-56
2022/08/24 05:07:19;;;;;;;15.10;13.60;;;18.30;1.00;;;;;;6276633;28;20824;-53
2022/08/24 05:10:22;;;;;;;15.63;13.90;;;18.30;1.00;;;;;;6282850;28;20245;-55
2022/08/24 05:13:25;;;;;;;15.87;14.37;;;18.30;1.00;;;;;;6280108;28;20316;-55
2022/08/24 05:16:33;;;;;;;19.30;16.40;;;18.40;1.00;;;;;;6280421;28;20670;-55
2022/08/24 05:19:37;;;;;;;22.53;19.20;;;18.50;1.00;;;;;;6281479;28;20287;-55
2022/08/24 05:22:40;;;;;;;28.93;19.43;;;18.60;1.00;;;;;;6281879;28;20748;-55
2022/08/24 05:25:43;;;;;;;22.63;18.10;;;18.70;1.00;;;;;;6273719;28;20253;-59
2022/08/24 05:28:46;;;;;;;21.13;17.50;;;18.80;1.00;;;;;;6280621;28;20804;-55
2022/08/24 05:31:50;;;;;;;23.33;17.80;;;18.90;1.00;;;;;;6279726;28;20251;-53
2022/08/24 05:34:53;;;;;;;25.87;17.53;;;19.00;1.00;;;;;;6276036;28;20247;-56
2022/08/24 05:37:58;;;;;;;23.07;17.60;;;19.20;1.00;;;;;;6281699;28;20241;-58
2022/08/24 05:41:05;;;;;;;18.33;16.03;;;19.20;1.00;;;;;;6281190;28;20375;-55
2022/08/24 05:44:08;;;;;;;16.67;14.83;;;19.30;1.00;;;;;;6283700;28;20306;-63
2022/08/24 05:47:12;;;;;;;19.20;15.40;;;19.40;1.00;;;;;;6276283;28;20285;-55
2022/08/24 05:50:15;;;;;;;18.33;15.30;;;19.50;1.00;;;;;;6283132;28;20237;-54
2022/08/24 05:53:20;;;;;;;16.73;14.90;;;19.60;1.00;;;;;;6283869;28;20233;-55
2022/08/24 05:56:23;;;;;;;19.27;15.20;;;19.70;1.00;;;;;;6283326;28;20323;-56
2022/08/24 05:59:34;;;;;;;15.37;13.77;;;19.80;1.00;;;;;;6282737;28;20323;-55
2022/08/24 06:02:38;;;;;;;15.83;14.07;;;20.00;1.00;;;;;;6272112;28;20279;-56
2022/08/24 06:05:47;;;;;;;14.83;13.37;;;20.10;1.00;;;;;;6280381;28;20741;-55
2022/08/24 06:08:53;;;;;;;15.77;14.13;;;20.20;1.00;;;;;;6283311;28;20245;-55
2022/08/24 06:11:58;;;;;;;16.37;14.57;;;20.30;1.00;;;;;;6284156;28;20310;-55
2022/08/24 06:15:01;;;;;;;18.83;15.17;;;20.50;1.00;;;;;;6282045;28;20237;-54
2022/08/24 06:18:07;;;;;;;14.90;13.47;;;20.70;1.00;;;;;;6282949;28;20725;-54
2022/08/24 06:21:12;;;;;;;15.57;14.00;;;20.80;1.00;;;;;;6284019;28;20616;-55
2022/08/24 06:24:18;;;;;;;16.77;14.87;;;21.00;1.00;;;;;;6281802;28;20733;-58
2022/08/24 06:27:24;;;;;;;16.80;14.27;;;21.10;1.00;;;;;;6283883;28;20241;-55
2022/08/24 06:30:27;;;;;;;17.13;13.90;;;21.50;1.00;;;;;;6275550;28;20332;-58
2022/08/24 06:33:34;;;;;;;15.03;13.50;;;22.00;1.00;;;;;;6283731;28;20279;-54
2022/08/24 06:36:37;;;;;;;16.10;14.40;;;22.20;1.00;;;;;;6281224;28;20751;-54
2022/08/24 06:39:42;;;;;;;15.33;13.50;;;22.30;1.00;;;;;;6274651;28;20331;-55
2022/08/24 06:42:48;;;;;;;14.27;12.97;;;22.20;1.00;;;;;;6283401;28;20244;-53
2022/08/24 06:45:53;;;;;;;14.70;13.07;;;22.10;1.00;;;;;;6256317;28;20299;-54
2022/08/24 06:48:57;;;;;;;15.00;13.43;;;22.10;1.00;;;;;;6283345;28;20236;-63
2022/08/24 06:52:00;;;;;;;15.47;12.77;;;22.00;1.00;;;;;;6283914;28;20249;-54
2022/08/24 06:55:04;;;;;;;14.20;12.87;;;21.90;1.00;;;;;;6278552;28;20238;-54
2022/08/24 06:58:07;;;;;;;18.30;14.57;;;21.80;1.00;;;;;;6287569;28;20241;-54
2022/08/24 07:01:15;;;;;;;17.13;14.17;;;21.90;1.00;;;;;;6278976;28;20237;-56
2022/08/24 07:04:20;;;;;;;16.63;14.27;;;21.80;1.00;;;;;;6287155;28;20233;-55
2022/08/24 07:07:30;;;;;;;18.87;14.43;;;21.70;1.00;;;;;;6287094;28;20585;-56
2022/08/24 07:10:33;;;;;;;20.10;14.90;;;21.70;1.00;;;;;;6283811;28;20233;-55
2022/08/24 07:13:36;;;;;;;17.30;14.80;;;21.80;1.00;;;;;;6286263;28;20431;-55
2022/08/24 07:16:39;;;;;;;16.87;13.97;;;21.90;1.00;;;;;;6287012;28;20815;-54
2022/08/24 07:19:44;;;;;;;17.27;15.53;;;21.90;1.00;;;;;;6283818;28;20241;-55
2022/08/24 07:22:47;;;;;;;14.27;13.10;;;22.00;1.00;;;;;;6286632;28;20321;-54
2022/08/24 07:25:50;;;;;;;15.13;13.43;;;22.10;1.00;;;;;;6286666;28;20248;-55
2022/08/24 07:29:04;;;;;;;14.93;13.57;;;22.20;1.00;;;;;;6286225;28;20233;-54
2022/08/24 07:32:09;;;;;;;14.90;13.33;;;22.20;1.00;;;;;;6279867;28;20236;-55
2022/08/24 07:35:13;;;;;;;14.87;13.33;;;22.20;1.00;;;;;;6286729;28;20275;-54
2022/08/24 07:38:16;;;;;;;15.47;12.83;;;22.20;1.00;;;;;;6278700;28;20379;-56
2022/08/24 07:41:19;;;;;;;17.13;13.13;;;22.30;1.00;;;;;;6281796;28;20241;-57
2022/08/24 07:44:43;;;;;;;13.63;12.33;;;22.40;1.00;;;;;;6285199;28;20716;-56
2022/08/24 07:47:46;;;;;;;12.67;11.37;;;22.40;1.00;;;;;;6284809;28;20309;-57
2022/08/24 07:51:05;;;;;;;13.80;12.43;;;22.50;1.00;;;;;;6286466;28;20298;-56
2022/08/24 07:54:08;;;;;;;15.57;13.70;;;22.70;1.00;;;;;;6258042;28;20419;-53
2022/08/24 07:57:15;;;;;;;15.50;14.00;;;22.60;1.00;;;;;;6276764;28;20233;-56
2022/08/24 08:00:20;;;;;;;13.60;12.27;;;22.50;1.00;;;;;;6285943;28;20240;-58
2022/08/24 08:03:25;;;;;;;16.30;14.63;;;22.70;1.00;;;;;;6280249;28;20310;-55
2022/08/24 08:06:29;;;;;;;15.90;14.23;;;22.70;1.00;;;;;;6284653;28;20666;-56
2022/08/24 08:09:32;;;;;;;15.80;14.10;;;22.90;1.00;;;;;;6286047;28;20324;-57
2022/08/24 08:12:35;;;;;;;16.17;14.47;;;23.00;1.00;;;;;;6286183;28;20229;-55
2022/08/24 08:15:38;;;;;;;18.10;15.03;;;23.20;1.00;;;;;;6279415;28;20274;-55
2022/08/24 08:18:43;;;;;;;17.40;13.57;;;23.20;1.00;;;;;;6285578;28;20305;-55
2022/08/24 08:25:13;;;;;;;15.83;13.67;;;23.40;1.00;;;;;;6279915;28;20604;-56
2022/08/24 08:28:17;;;;;;;16.33;13.57;;;23.60;1.00;;;;;;6285662;28;20319;-56
2022/08/24 08:31:34;;;;;;;14.73;13.20;;;23.70;1.00;;;;;;6274199;28;20649;-55
2022/08/24 08:34:38;;;;;;;13.93;12.53;;;23.90;1.00;;;;;;6284334;28;20236;-53
2022/08/24 08:37:42;;;;;;;14.10;12.73;;;23.90;1.00;;;;;;6283769;28;20805;-57
2022/08/24 08:40:58;;;;;;;13.30;11.93;;;23.80;1.00;;;;;;6284073;28;20386;-55
2022/08/24 08:44:05;;;;;;;14.13;11.63;;;23.70;1.00;;;;;;6284304;28;20229;-57
2022/08/24 08:47:22;;;;;;;16.63;12.60;;;23.60;1.00;;;;;;6286308;28;20802;-55
2022/08/24 08:50:29;;;;;;;14.17;12.63;;;23.60;1.00;;;;;;6272190;28;20767;-56
2022/08/24 08:54:12;;;;;;;13.87;11.93;;;23.70;1.00;;;;;;6277912;28;20849;-56
2022/08/24 08:57:40;;;;;;;12.73;11.53;;;23.60;1.00;;;;;;6285568;28;20621;-55
2022/08/24 09:00:55;;;;;;;14.47;12.97;;;23.70;1.00;;;;;;6281621;28;22121;-55
2022/08/24 09:04:47;;;;;;;14.37;12.47;;;23.80;1.00;;;;;;6270682;28;20418;-55
2022/08/24 09:07:57;;;;;;;13.83;12.40;;;23.80;1.00;;;;;;6281287;28;20242;-57
2022/08/24 09:11:14;;;;;;;14.10;12.70;;;23.70;1.00;;;;;;6285138;28;20237;-56
2022/08/24 09:14:40;;;;;;;18.27;12.77;;;23.70;1.00;;;;;;6278117;28;20848;-55
2022/08/24 09:18:03;;;;;;;17.27;12.87;;;23.80;1.00;;;;;;6274189;28;20236;-56
2022/08/24 09:21:27;;;;;;;16.10;12.90;;;23.90;1.00;;;;;;6284218;28;20616;-55
2022/08/24 09:24:55;;;;;;;14.97;12.23;;;24.00;1.00;;;;;;6279148;28;20229;-55
2022/08/24 09:28:14;;;;;;;12.40;11.23;;;24.00;1.00;;;;;;6284280;28;20534;-55
2022/08/24 09:31:52;;;;;;;13.70;12.30;;;24.10;1.00;;;;;;6280966;28;20233;-54
2022/08/24 09:35:00;;;;;;;13.83;12.43;;;24.10;1.00;;;;;;6284369;28;20249;-55
2022/08/24 09:38:23;;;;;;;17.30;13.20;;;24.30;1.00;;;;;;6284753;28;20305;-56
2022/08/24 09:42:02;;;;;;;12.93;11.50;;;24.40;1.00;;;;;;6279208;28;20260;-55
2022/08/24 09:45:25;;;;;;;15.40;13.37;;;24.50;1.00;;;;;;6283707;28;20226;-54
2022/08/24 09:49:11;;;;;;;17.30;14.17;;;24.50;1.00;;;;;;6283292;28;20554;-56
2022/08/24 09:52:45;;;;;;;16.97;13.67;;;24.60;1.00;;;;;;6264755;28;20424;-55
2022/08/24 09:56:13;;;;;;;16.20;14.60;;;24.60;1.00;;;;;;6280188;28;20252;-55
2022/08/24 09:59:32;;;;;;;19.13;15.57;;;24.50;1.00;;;;;;6282661;28;20322;-55
2022/08/24 10:03:17;;;;;;;15.10;13.67;;;24.40;1.00;;;;;;6281701;28;20400;-55
2022/08/24 10:06:35;;;;;;;15.90;14.27;;;24.50;1.00;;;;;;6283601;28;20234;-56
2022/08/24 10:09:58;;;;;;;21.33;15.00;;;24.60;1.00;;;;;;6282674;28;20395;-56
2022/08/24 10:13:12;;;;;;;15.60;14.07;;;24.60;1.00;;;;;;6284011;28;20233;-56
2022/08/24 10:16:32;;;;;;;16.37;14.77;;;24.70;1.00;;;;;;6281646;28;20689;-55
2022/08/24 10:19:57;;;;;;;18.67;15.07;;;24.80;1.00;;;;;;6282783;28;20900;-54
2022/08/24 10:23:25;;;;;;;17.27;14.43;;;24.90;1.00;;;;;;6282223;28;20696;-55
2022/08/24 10:27:23;;;;;;;18.20;16.40;;;25.10;1.00;;;;;;6276404;28;20255;-55
2022/08/24 10:30:51;;;;;;;18.43;16.57;;;25.20;1.00;;;;;;6250128;28;20233;-55
2022/08/24 10:34:04;;;;;;;18.50;16.50;;;25.20;1.00;;;;;;6284519;28;20321;-55
2022/08/24 10:37:25;;;;;;;17.57;15.87;;;25.30;1.00;;;;;;6281204;28;20316;-54
2022/08/24 10:40:38;;;;;;;21.03;17.33;;;25.30;1.00;;;;;;6280470;28;20263;-55
2022/08/24 10:44:00;;;;;;;17.03;15.13;;;25.30;1.00;;;;;;6278424;28;20710;-56
2022/08/24 10:47:12;;;;;;;19.03;15.83;;;25.20;1.00;;;;;;6276941;28;20302;-55
2022/08/24 10:50:32;;;;;;;18.33;15.30;;;25.00;1.00;;;;;;6281746;28;20277;-54
2022/08/24 10:53:36;;;;;;;16.13;14.63;;;25.10;1.00;;;;;;6286070;28;20794;-54
2022/08/24 10:56:42;;;;;;;15.30;13.83;;;25.00;1.00;;;;;;6286308;28;20233;-55
2022/08/24 10:59:54;;;;;;;17.07;14.87;;;25.10;1.00;;;;;;6284167;28;20225;-55
2022/08/24 11:03:11;;;;;;;15.97;14.20;;;25.10;1.00;;;;;;6285075;28;20274;-55
2022/08/24 11:06:17;;;;;;;15.33;13.73;;;25.30;1.00;;;;;;6281965;28;20644;-54
2022/08/24 11:09:21;;;;;;;13.87;12.77;;;25.50;1.00;;;;;;6284435;28;20233;-55
2022/08/24 11:12:28;;;;;;;15.97;13.23;;;25.60;1.00;;;;;;6279142;28;20686;-56
2022/08/24 11:15:31;;;;;;;15.07;11.70;;;25.90;1.00;;;;;;6275312;28;20380;-55
2022/08/24 11:18:53;;;;;;;12.60;11.47;;;26.00;1.00;;;;;;6284845;28;20728;-55
2022/08/24 11:22:00;;;;;;;14.07;12.63;;;26.30;1.00;;;;;;6285189;28;20244;-56
2022/08/24 11:25:13;;;;;;;13.87;12.27;;;26.10;1.00;;;;;;6246568;28;20257;-54
2022/08/24 11:28:22;;;;;;;16.37;13.47;;;25.90;1.00;;;;;;6278116;28;20286;-56
2022/08/24 11:31:31;;;;;;;15.40;13.30;;;25.70;1.00;;;;;;6282474;28;20323;-55
2022/08/24 11:34:38;;;;;;;12.40;11.20;;;25.80;1.00;;;;;;6280300;28;20287;-55
2022/08/24 11:37:42;;;;;;;12.50;11.30;;;25.90;1.00;;;;;;6285113;28;20229;-54
2022/08/24 11:40:51;;;;;;;12.63;11.47;;;26.10;1.00;;;;;;6276338;28;20245;-54
2022/08/24 11:44:02;;;;;;;13.17;11.13;;;26.40;1.00;;;;;;6277908;28;20229;-55
2022/08/24 11:47:22;;;;;;;10.73;9.67;;;26.50;1.00;;;;;;6282613;28;20320;-55
2022/08/24 11:50:33;;;;;;;12.10;11.00;;;26.70;1.00;;;;;;6282405;28;20840;-53
2022/08/24 11:53:45;;;;;;;12.30;10.70;;;26.90;1.00;;;;;;6283605;28;20229;-55
2022/08/24 11:57:04;;;;;;;12.97;11.60;;;27.20;1.00;;;;;;6284696;28;20240;-55
2022/08/24 12:00:17;;;;;;;10.90;9.80;;;27.30;1.00;;;;;;6279095;28;20234;-55
2022/08/24 12:03:42;;;;;;;10.80;9.87;;;27.10;1.00;;;;;;6286325;28;20290;-56
2022/08/24 12:06:54;;;;;;;10.90;9.90;;;27.00;1.00;;;;;;6285843;28;20342;-58
2022/08/24 12:10:14;;;;;;;10.87;10.00;;;26.70;1.00;;;;;;6282104;28;20718;-55
2022/08/24 12:13:31;;;;;;;13.37;11.50;;;26.40;1.00;;;;;;6278918;28;20340;-57
2022/08/24 12:16:42;;;;;;;12.57;11.00;;;26.10;1.00;;;;;;6276836;28;20253;-55
2022/08/24 12:19:56;;;;;;;11.13;10.13;;;26.00;1.00;;;;;;6279502;28;20325;-54
2022/08/24 12:23:02;;;;;;;10.83;9.70;;;26.10;1.00;;;;;;6285067;28;20371;-55
2022/08/24 12:26:13;;;;;;;10.97;9.87;;;26.50;1.00;;;;;;6277795;28;20233;-55
2022/08/24 12:29:23;;;;;;;11.53;9.80;;;26.90;1.00;;;;;;6275768;28;20290;-56
2022/08/24 12:32:30;;;;;;;12.50;10.70;;;27.20;1.00;;;;;;6277250;28;20322;-55
2022/08/24 12:35:37;;;;;;;9.83;9.03;;;27.30;1.00;;;;;;6279849;28;20237;-55
2022/08/24 12:38:45;;;;;;;11.10;10.10;;;27.30;1.00;;;;;;6284502;28;20234;-54
2022/08/24 12:41:57;;;;;;;9.73;8.93;;;27.50;1.00;;;;;;6283588;28;20354;-55
2022/08/24 12:45:05;;;;;;;9.47;8.57;;;27.70;1.00;;;;;;6278226;28;20257;-54
2022/08/24 12:48:14;;;;;;;9.63;8.80;;;27.80;1.00;;;;;;6281910;28;20707;-54
2022/08/24 12:51:22;;;;;;;11.37;10.17;;;27.80;1.00;;;;;;6271440;28;20271;-55
2022/08/24 12:54:49;;;;;;;10.90;9.80;;;27.80;1.00;;;;;;6276545;28;20596;-55
2022/08/24 12:58:02;;;;;;;10.30;9.33;;;27.90;1.00;;;;;;6280348;28;20230;-55
2022/08/24 13:01:07;;;;;;;9.07;8.20;;;28.10;1.00;;;;;;6282530;28;20344;-55
2022/08/24 13:04:29;;;;;;;14.37;9.37;;;28.20;1.00;;;;;;6275142;28;20429;-55
2022/08/24 13:07:40;;;;;;;10.40;8.57;;;28.40;1.00;;;;;;6282956;28;20226;-57
2022/08/24 13:10:52;;;;;;;10.83;8.87;;;28.60;1.00;;;;;;6284505;28;20701;-56
2022/08/24 13:14:14;;;;;;;12.97;8.20;;;28.80;1.00;;;;;;6279121;28;20320;-56
2022/08/24 13:17:19;;;;;;;7.93;7.17;;;28.90;1.00;;;;;;6280532;28;20234;-55
2022/08/24 13:20:26;;;;;;;7.40;6.70;;;28.90;1.00;;;;;;6283209;28;20328;-55
2022/08/24 13:23:29;;;;;;;11.60;8.33;;;28.80;1.00;;;;;;6278380;28;20229;-56
2022/08/24 13:26:32;;;;;;;10.23;7.87;;;28.40;1.00;;;;;;6282438;28;20627;-55
2022/08/24 13:29:37;;;;;;;8.07;7.23;;;28.10;1.00;;;;;;6279879;28;20386;-54
2022/08/24 13:32:50;;;;;;;8.50;7.43;;;27.80;1.00;;;;;;6282013;28;20514;-55
2022/08/24 13:36:23;;;;;;;9.47;8.63;;;27.50;1.00;;;;;;6282422;28;20328;-56
2022/08/24 13:39:45;;;;;;;7.77;7.17;;;27.40;1.00;;;;;;6261940;28;20245;-55
2022/08/24 13:43:29;;;;;;;9.40;7.73;;;27.50;1.00;;;;;;6281415;28;20252;-56
2022/08/24 13:46:46;;;;;;;8.53;7.80;;;27.90;1.00;;;;;;6272485;28;20237;-55
2022/08/24 13:50:04;;;;;;;13.87;8.00;;;28.30;1.00;;;;;;6278085;28;20355;-55
2022/08/24 13:53:40;;;;;;;10.43;9.37;;;28.60;1.00;;;;;;6281611;28;20793;-55
2022/08/24 13:57:03;;;;;;;10.33;9.00;;;28.90;1.00;;;;;;6275768;28;20342;-55
2022/08/24 14:00:31;;;;;;;11.37;9.73;;;28.90;1.00;;;;;;6280017;28;20442;-55
2022/08/24 14:03:54;;;;;;;14.73;11.13;;;28.80;1.00;;;;;;6274643;28;20233;-54
2022/08/24 14:07:08;;;;;;;12.47;11.03;;;28.50;1.00;;;;;;6281304;28;20320;-54
2022/08/24 14:10:33;;;;;;;17.83;11.87;;;28.30;1.00;;;;;;6281058;28;20241;-55
2022/08/24 14:13:49;;;;;;;13.93;10.77;;;28.10;1.00;;;;;;6276454;28;20226;-55
2022/08/24 14:21:08;;;;;;;17.40;13.23;;;27.90;1.00;;;;;;6275549;28;20687;-54
2022/08/24 14:24:25;;;;;;;16.53;13.43;;;27.80;1.00;;;;;;6273118;28;20602;-55
2022/08/24 14:27:38;;;;;;;11.33;9.90;;;27.60;1.00;;;;;;6278612;28;20391;-55
2022/08/24 14:30:46;;;;;;;12.83;11.53;;;27.50;1.00;;;;;;6281544;28;20233;-54
2022/08/24 14:34:11;;;;;;;12.37;10.57;;;27.30;1.00;;;;;;6277852;28;20230;-55
2022/08/24 14:37:22;;;;;;;11.90;10.70;;;27.10;1.00;;;;;;6281385;28;20805;-55
2022/08/24 14:40:32;;;;;;;9.73;8.90;;;27.00;1.00;;;;;;6268995;28;20609;-55
2022/08/24 14:44:04;;;;;;;9.30;8.50;;;27.20;1.00;;;;;;6279644;28;20240;-55
2022/08/24 14:47:14;;;;;;;8.50;7.80;;;27.20;1.00;;;;;;6280571;28;20773;-55
2022/08/24 14:50:24;;;;;;;7.53;6.93;;;27.50;1.00;;;;;;6272996;28;20366;-55
2022/08/24 14:53:46;;;;;;;17.83;14.03;;;27.90;1.00;;;;;;6279239;28;20237;-54
2022/08/24 14:57:04;;;;;;;7.97;6.97;;;28.20;1.00;;;;;;6280199;28;20399;-55
2022/08/24 15:00:13;;;;;;;17.63;10.90;;;28.30;1.00;;;;;;6279680;28;20359;-55
2022/08/24 15:03:38;;;;;;;13.17;7.90;;;28.50;1.00;;;;;;6271768;28;20302;-54
2022/08/24 15:06:47;;;;;;;11.60;8.47;;;28.50;1.00;;;;;;6276219;28;20221;-57
2022/08/24 15:09:51;;;;;;;8.93;7.93;;;28.60;1.00;;;;;;6279889;28;20519;-55
2022/08/24 15:12:58;;;;;;;15.83;8.80;;;28.80;1.00;;;;;;6271556;28;20255;-56
2022/08/24 15:16:11;;;;;;;9.45;7.80;;;28.90;1.00;;;;;;6280296;28;20374;-55
2022/08/24 15:19:21;;;;;;;7.03;6.63;;;29.00;1.00;;;;;;6285106;28;20225;-55
2022/08/24 15:22:40;;;;;;;7.47;6.72;;;29.20;1.00;;;;;;6275724;28;20287;-55
2022/08/24 15:25:49;;;;;;;7.20;6.60;;;29.30;1.00;;;;;;6283962;28;20230;-55
2022/08/24 15:28:54;;;;;;;6.97;6.30;;;29.30;1.00;;;;;;6284409;28;20245;-55
2022/08/24 15:32:03;;;;;;;6.35;5.95;;;29.10;1.00;;;;;;6273221;28;20226;-56
2022/08/24 15:35:07;;;;;;;6.77;6.20;;;29.00;1.00;;;;;;6283495;28;20425;-54
2022/08/24 15:38:18;;;;;;;8.80;6.90;;;28.80;1.00;;;;;;6283709;28;20230;-55
2022/08/24 15:41:27;;;;;;;8.80;7.43;;;28.60;1.00;;;;;;6274549;28;20335;-56
2022/08/24 15:44:32;;;;;;;9.93;6.33;;;28.60;1.00;;;;;;6278536;28;20233;-55
2022/08/24 15:47:37;;;;;;;11.50;6.63;;;28.50;1.00;;;;;;6284251;28;20714;-56
2022/08/24 15:50:43;;;;;;;11.40;6.83;;;28.40;1.00;;;;;;6281591;28;20355;-55
2022/08/24 15:53:46;;;;;;;8.47;6.23;;;28.10;1.00;;;;;;6284379;28;20317;-54
2022/08/24 15:56:52;;;;;;;8.17;6.67;;;28.00;1.00;;;;;;6284041;28;20229;-54
2022/08/24 16:00:07;;;;;;;14.63;8.33;;;27.90;1.00;;;;;;6282455;28;20298;-54
2022/08/24 16:03:21;;;;;;;8.43;7.20;;;27.70;1.00;;;;;;6283511;28;20609;-56
2022/08/24 16:06:34;;;;;;;7.70;6.67;;;27.60;1.00;;;;;;6282686;28;20336;-55
2022/08/24 16:09:37;;;;;;;9.37;6.57;;;27.50;1.00;;;;;;6283901;28;20492;-55
2022/08/24 16:12:40;;;;;;;6.83;6.37;;;27.30;1.00;;;;;;6285425;28;20225;-56
2022/08/24 16:15:48;;;;;;;8.43;7.63;;;27.20;1.00;;;;;;6281886;28;20316;-55
2022/08/24 16:18:54;;;;;;;8.97;8.13;;;27.10;1.00;;;;;;6282994;28;20366;-55
2022/08/24 16:22:05;;;;;;;7.93;7.20;;;26.90;1.00;;;;;;6282553;28;20543;-56
2022/08/24 16:25:18;;;;;;;7.97;7.40;;;26.80;1.00;;;;;;6278108;28;20270;-55
2022/08/24 16:28:36;;;;;;;8.63;7.77;;;26.80;1.00;;;;;;6281849;28;20328;-55
2022/08/24 16:31:50;;;;;;;8.70;7.23;;;26.70;1.00;;;;;;6281678;28;20329;-55
2022/08/24 16:34:54;;;;;;;11.43;6.63;;;26.70;1.00;;;;;;6278191;28;20229;-56